Time;durP1;ratioP1;P1;durP2;ratioP2;P2;SDS_P1;SDS_P2;PMS_P1;PMS_P2;Temp;Humidity;BMP_temperature;BMP_pressure;BME280_temperature;BME280_humidity;BME280_pressure;Samples;Min_cycle;Max_cycle;Signal;HPM_P1;HPM_P2
2021/01/16 00:00:50;;;;;;;14.50;12.83;;;6.00;99.90;;;6.25;67.19;102833.72;4805424;29;20051;-68
2021/01/16 00:03:18;;;;;;;20.83;14.50;;;6.00;99.90;;;6.12;67.36;102797.22;4805309;29;20065;-68
2021/01/16 00:05:51;;;;;;;18.37;14.33;;;6.00;99.90;;;6.30;67.09;102836.56;4805048;29;20058;-68
2021/01/16 00:08:22;;;;;;;17.63;14.30;;;6.00;99.90;;;6.27;67.18;102834.69;4805244;29;20061;-68
2021/01/16 00:10:51;;;;;;;15.90;13.80;;;6.00;99.90;;;6.27;67.05;102837.31;4805040;29;20574;-68
2021/01/16 00:13:22;;;;;;;18.67;14.80;;;6.00;99.90;;;6.21;67.35;102834.41;4805011;29;20074;-68
2021/01/16 00:16:00;;;;;;;19.85;14.93;;;6.00;99.90;;;6.25;67.71;102833.72;4805184;29;20107;-68
2021/01/16 00:18:28;;;;;;;16.23;14.40;;;6.00;99.90;;;6.31;67.29;102823.47;4805072;29;20138;-68
2021/01/16 00:20:58;;;;;;;18.00;14.83;;;6.10;99.90;;;6.32;67.12;102821.75;4804901;29;20063;-68
2021/01/16 00:23:28;;;;;;;20.40;15.18;;;6.10;99.90;;;6.33;66.99;102828.78;4804875;29;20058;-67
2021/01/16 00:25:57;;;;;;;19.45;14.95;;;6.10;99.90;;;6.38;66.98;102827.28;4805092;29;20081;-68
2021/01/16 00:28:29;;;;;;;18.47;13.97;;;6.20;99.90;;;6.41;66.91;102829.16;4804957;29;20066;-68
2021/01/16 00:30:56;;;;;;;20.07;14.43;;;6.20;99.90;;;6.43;66.65;102833.63;4804743;29;20443;-66
2021/01/16 00:33:26;;;;;;;17.50;14.60;;;6.20;99.90;;;6.48;66.53;102832.13;4804779;29;20058;-66
2021/01/16 00:35:56;;;;;;;15.87;14.20;;;6.30;99.90;;;6.50;66.58;102840.06;4804667;29;20091;-66
2021/01/16 00:38:24;;;;;;;15.70;13.82;;;6.30;99.90;;;6.49;66.21;102820.75;4805026;29;20123;-66
2021/01/16 00:40:53;;;;;;;17.23;14.20;;;6.30;99.90;;;6.35;66.53;102796.50;4804850;29;20086;-66
2021/01/16 00:43:21;;;;;;;16.27;14.47;;;6.30;99.90;;;6.45;66.44;102802.16;4804695;29;20466;-66
2021/01/16 00:45:50;;;;;;;18.87;14.97;;;6.30;99.90;;;6.47;66.53;102808.38;4804779;29;20071;-66
2021/01/16 00:48:21;;;;;;;18.75;14.50;;;6.30;99.90;;;6.46;66.45;102802.25;4803462;29;20054;-66
2021/01/16 00:50:51;;;;;;;20.98;14.07;;;6.30;99.90;;;6.48;66.46;102811.09;4804850;29;20075;-66
2021/01/16 00:53:23;;;;;;;16.27;13.63;;;6.30;99.90;;;6.48;66.53;102810.19;4803501;29;20049;-66
2021/01/16 00:55:59;;;;;;;17.70;14.57;;;6.30;99.90;;;6.47;66.55;102808.38;4804728;29;20046;-66
2021/01/16 00:58:29;;;;;;;16.83;14.83;;;6.30;99.90;;;6.46;66.64;102817.09;4804691;29;20050;-67
2021/01/16 01:01:18;;;;;;;18.63;14.80;;;6.30;99.90;;;6.45;66.41;102823.19;4804359;29;20134;-67
2021/01/16 01:03:46;;;;;;;16.87;14.20;;;6.30;99.90;;;6.50;66.50;102809.44;4806870;29;20058;-67
2021/01/16 01:06:14;;;;;;;17.00;14.63;;;6.30;99.90;;;6.48;66.67;102797.03;4807802;29;20058;-67
2021/01/16 01:08:42;;;;;;;17.77;14.37;;;6.30;99.90;;;6.39;66.77;102803.69;4807953;29;20055;-67
2021/01/16 01:11:10;;;;;;;20.67;15.80;;;6.20;99.90;;;6.38;66.74;102794.03;4806397;29;20489;-68
2021/01/16 01:13:37;;;;;;;18.47;14.63;;;6.10;99.90;;;6.34;66.83;102799.97;4807774;29;20075;-70
2021/01/16 01:16:06;;;;;;;18.37;15.60;;;6.10;99.90;;;6.34;67.01;102796.44;4807830;29;20055;-68
2021/01/16 01:18:34;;;;;;;18.47;15.83;;;6.00;99.90;;;6.30;66.90;102794.50;4791435;29;20051;-67
2021/01/16 01:21:01;;;;;;;18.27;15.80;;;6.00;99.90;;;6.24;66.84;102765.34;4791444;29;20423;-68
2021/01/16 01:23:30;;;;;;;20.70;16.50;;;6.00;99.90;;;6.26;66.42;102772.47;4807763;29;20138;-68
2021/01/16 01:25:57;;;;;;;18.73;14.97;;;6.10;99.90;;;6.35;66.46;102786.00;4807464;29;20055;-67
2021/01/16 01:28:25;;;;;;;17.97;15.13;;;6.10;99.90;;;6.33;66.50;102777.13;4807809;29;20047;-69
2021/01/16 01:30:53;;;;;;;17.13;14.27;;;6.10;99.90;;;6.37;66.77;102780.78;4807450;29;20051;-68
2021/01/16 01:33:20;;;;;;;19.63;15.40;;;6.10;99.90;;;6.38;66.65;102783.50;4807426;29;20062;-68
2021/01/16 01:35:48;;;;;;;18.90;15.17;;;6.10;99.90;;;6.36;66.73;102789.53;4807500;29;20063;-67
2021/01/16 01:38:17;;;;;;;19.13;15.43;;;6.10;99.90;;;5.74;66.90;102671.19;4807353;29;20058;-67
2021/01/16 01:40:44;;;;;;;18.00;15.27;;;6.10;99.90;;;6.35;67.01;102782.47;4807365;29;20050;-67
2021/01/16 01:43:13;;;;;;;20.47;15.83;;;6.10;99.90;;;6.36;66.92;102785.19;4807374;29;20050;-67
2021/01/16 01:45:42;;;;;;;21.30;15.67;;;6.10;99.90;;;6.34;66.93;102785.94;4807414;29;20051;-66
2021/01/16 01:48:10;;;;;;;18.90;15.47;;;6.20;99.90;;;6.35;67.10;102788.63;4807216;29;20051;-66
2021/01/16 01:50:39;;;;;;;18.80;14.87;;;6.10;99.90;;;6.27;67.21;102790.00;4790872;29;20784;-66
2021/01/16 01:53:08;;;;;;;18.33;15.23;;;6.10;99.90;;;6.36;66.93;102790.44;4806977;29;20504;-66
2021/01/16 01:55:37;;;;;;;18.33;15.23;;;6.10;99.90;;;6.40;66.92;102786.19;4807102;29;20093;-66
2021/01/16 01:58:18;;;;;;;17.40;15.50;;;6.10;99.90;;;6.27;66.69;102774.25;4807143;29;20137;-66
2021/01/16 02:00:49;;;;;;;20.20;16.20;;;6.10;99.90;;;6.28;66.92;102789.19;4807043;29;20050;-68
2021/01/16 02:03:16;;;;;;;19.33;16.97;;;6.10;99.90;;;6.15;67.05;102784.25;4790653;29;20191;-67
2021/01/16 02:05:44;;;;;;;21.43;17.07;;;6.00;99.90;;;6.10;67.33;102782.22;4796423;29;20083;-69
2021/01/16 02:08:12;;;;;;;22.20;17.47;;;5.90;99.90;;;6.05;67.87;102783.75;4771128;30;20116;-68
2021/01/16 02:10:39;;;;;;;20.27;17.13;;;5.80;99.90;;;6.07;67.75;102777.75;4771039;30;20055;-69
2021/01/16 02:13:07;;;;;;;20.63;17.17;;;5.80;99.90;;;6.06;67.56;102775.03;4784333;29;20068;-67
2021/01/16 02:15:42;;;;;;;22.27;17.23;;;5.80;99.90;;;6.10;67.59;102772.63;4769667;30;20048;-67
2021/01/16 02:18:25;;;;;;;20.90;15.73;;;5.80;99.90;;;6.13;67.63;102775.41;4770935;30;20058;-69
2021/01/16 02:20:55;;;;;;;22.57;17.70;;;5.80;99.90;;;6.01;67.33;102766.06;4771032;30;20051;-68
2021/01/16 02:23:48;;;;;;;22.27;17.85;;;5.80;99.90;;;6.10;67.58;102771.72;4770839;30;20079;-67
2021/01/16 02:26:55;;;;;;;24.20;17.67;;;5.80;99.90;;;6.13;66.99;102761.34;4770642;30;20081;-69
2021/01/16 02:29:24;;;;;;;22.90;17.63;;;5.90;99.90;;;6.17;66.93;102764.19;4770907;30;20062;-67
2021/01/16 02:31:57;;;;;;;24.50;16.43;;;6.00;99.90;;;6.18;66.53;102749.31;4770627;30;20472;-67
2021/01/16 02:34:31;;;;;;;26.10;16.30;;;6.00;99.90;;;6.18;66.84;102752.84;4770590;30;20051;-66
2021/01/16 02:37:29;;;;;;;20.17;16.97;;;6.00;99.90;;;6.16;66.44;102749.25;4784453;30;20064;-67
2021/01/16 02:40:11;;;;;;;20.90;16.80;;;5.90;99.90;;;6.19;66.00;102753.75;4770513;30;20113;-66
2021/01/16 02:42:52;;;;;;;20.73;16.10;;;5.90;99.90;;;6.08;65.87;102744.47;4770518;30;20052;-66
2021/01/16 02:45:30;;;;;;;19.57;16.27;;;5.90;99.90;;;6.11;66.28;102749.88;4770465;30;20758;-67
2021/01/16 02:48:08;;;;;;;19.47;15.10;;;5.90;99.90;;;6.13;65.67;102742.97;4770609;30;20056;-66
2021/01/16 02:50:42;;;;;;;17.57;14.97;;;5.90;99.90;;;5.51;65.60;102648.28;4770336;30;20056;-66
2021/01/16 02:53:11;;;;;;;19.10;15.33;;;5.80;99.90;;;6.14;65.43;102739.50;4770309;30;20453;-66
2021/01/16 02:55:41;;;;;;;18.50;15.20;;;5.80;99.90;;;6.10;65.20;102733.22;4770196;30;20160;-67
2021/01/16 02:58:08;;;;;;;20.03;15.43;;;5.90;99.90;;;6.01;65.17;102706.56;4770297;30;20060;-66
2021/01/16 03:00:37;;;;;;;16.60;14.80;;;5.80;99.90;;;6.09;64.84;102726.19;4768854;30;20114;-66
2021/01/16 03:03:05;;;;;;;18.00;15.40;;;5.80;99.90;;;6.11;64.59;102719.25;4769967;30;20085;-66
2021/01/16 03:05:32;;;;;;;19.10;15.43;;;5.90;99.90;;;5.99;64.79;102713.47;4779001;29;20054;-66
2021/01/16 03:08:01;;;;;;;17.23;15.27;;;5.70;99.90;;;5.97;64.71;102712.50;4805743;29;20421;-66
2021/01/16 03:10:30;;;;;;;19.93;14.80;;;5.70;99.90;;;5.97;64.65;102707.25;4805877;29;20078;-66
2021/01/16 03:12:58;;;;;;;19.92;15.95;;;5.70;99.90;;;6.01;64.23;102703.94;4805849;29;20055;-66
2021/01/16 03:15:25;;;;;;;17.50;14.27;;;5.70;99.90;;;6.06;64.18;102699.75;4805875;29;20050;-66
2021/01/16 03:17:56;;;;;;;17.17;15.17;;;5.80;99.90;;;6.10;64.03;102704.31;4804525;29;20481;-66
2021/01/16 03:20:25;;;;;;;22.75;15.75;;;5.80;99.90;;;6.14;63.67;102698.38;4805679;29;20559;-66
2021/01/16 03:22:56;;;;;;;17.87;15.63;;;5.90;99.90;;;6.13;63.57;102696.59;4805765;29;20065;-66
2021/01/16 03:25:25;;;;;;;;;;;5.90;99.90;;;6.00;63.40;102686.34;4805479;29;20574;-66
2021/01/16 03:27:54;;;;;;;20.73;15.63;;;6.00;99.90;;;6.11;63.25;102684.22;4805579;29;19925;-66
2021/01/16 03:30:22;;;;;;;19.47;15.47;;;6.00;99.90;;;6.27;63.28;102694.53;4805452;29;20058;-66
2021/01/16 03:32:51;;;;;;;20.30;16.27;;;6.00;99.90;;;6.25;63.27;102691.81;4804078;29;20055;-66
2021/01/16 03:35:22;;;;;;;19.53;15.73;;;6.10;99.90;;;6.16;63.25;102690.53;4805450;29;20463;-66
2021/01/16 03:37:53;;;;;;;19.80;14.70;;;6.00;99.90;;;6.12;63.46;102700.03;4805634;29;20043;-66
2021/01/16 03:40:21;;;;;;;19.83;15.07;;;5.90;99.90;;;6.04;63.79;102700.56;4805363;29;20498;-66
2021/01/16 03:42:48;;;;;;;22.40;16.33;;;5.80;99.90;;;6.04;63.67;102698.78;4805332;29;20073;-66
2021/01/16 03:45:20;;;;;;;20.53;15.80;;;5.80;99.90;;;5.96;63.79;102700.19;4789114;29;20460;-66
2021/01/16 03:47:48;;;;;;;19.57;16.00;;;5.80;99.90;;;5.98;63.42;102701.16;4805303;29;20133;-66
2021/01/16 03:50:15;;;;;;;20.53;15.93;;;5.70;99.90;;;5.89;64.20;102710.34;4805238;29;20059;-66
2021/01/16 03:52:46;;;;;;;21.63;16.20;;;5.70;99.90;;;5.95;63.82;102685.28;4805178;29;20509;-66
2021/01/16 03:55:14;;;;;;;21.13;16.63;;;5.70;99.90;;;5.78;64.24;102686.25;4805311;29;20050;-66
2021/01/16 03:57:41;;;;;;;23.43;17.43;;;5.70;99.90;;;5.92;64.21;102687.75;4805184;29;20078;-66
2021/01/16 04:00:10;;;;;;;22.40;16.90;;;5.60;99.90;;;5.88;64.48;102682.31;4804869;29;20063;-66
2021/01/16 04:02:39;;;;;;;22.33;16.50;;;5.60;99.90;;;5.96;64.03;102675.69;4805304;29;20062;-66
2021/01/16 04:05:08;;;;;;;20.93;16.43;;;5.70;99.90;;;5.99;63.91;102671.44;4804973;29;20153;-66
2021/01/16 04:07:36;;;;;;;26.50;16.80;;;5.70;99.90;;;5.81;64.08;102643.44;4805172;29;20425;-66
2021/01/16 04:10:06;;;;;;;21.53;17.20;;;5.70;99.90;;;6.02;64.11;102665.44;4804949;29;20058;-66
2021/01/16 04:12:34;;;;;;;19.05;16.63;;;5.70;99.90;;;5.82;64.22;102661.91;4804853;29;20054;-66
2021/01/16 04:15:02;;;;;;;19.80;17.10;;;5.70;99.90;;;5.76;64.19;102661.66;4805021;29;20107;-66
2021/01/16 04:17:29;;;;;;;21.27;16.47;;;5.60;99.90;;;5.74;64.35;102663.31;4805161;29;20047;-67
2021/01/16 04:19:57;;;;;;;22.20;16.67;;;5.60;99.90;;;5.60;64.22;102661.78;4789011;29;20131;-66
2021/01/16 04:22:25;;;;;;;22.27;16.77;;;5.40;99.90;;;5.48;64.88;102656.00;4804996;29;20108;-66
2021/01/16 04:24:52;;;;;;;24.00;18.53;;;5.40;99.90;;;5.49;64.80;102653.47;4805173;29;20050;-66
2021/01/16 04:27:20;;;;;;;25.77;17.53;;;5.30;99.90;;;5.60;64.96;102643.41;4804778;29;20053;-66
2021/01/16 04:29:48;;;;;;;23.17;16.53;;;5.30;99.90;;;5.59;65.22;102670.50;4805022;29;20151;-66
2021/01/16 04:32:16;;;;;;;26.27;17.60;;;5.30;99.90;;;5.58;64.97;102639.81;4804856;29;20047;-66
2021/01/16 04:34:43;;;;;;;24.80;16.10;;;5.30;99.90;;;5.49;65.17;102639.44;4788505;29;20493;-66
2021/01/16 04:37:10;;;;;;;23.20;18.00;;;5.30;99.90;;;5.52;64.96;102634.31;4808519;29;20113;-66
2021/01/16 04:39:38;;;;;;;23.00;17.40;;;5.20;99.90;;;5.57;64.41;102637.16;4808337;29;20055;-66
2021/01/16 04:42:06;;;;;;;21.87;16.60;;;5.30;99.90;;;5.49;64.55;102626.31;4808350;29;20104;-66
2021/01/16 04:44:35;;;;;;;21.40;16.40;;;5.30;99.90;;;5.48;64.15;102622.78;4808312;29;20580;-66
2021/01/16 04:47:05;;;;;;;20.37;16.73;;;5.20;99.90;;;5.56;64.34;102624.84;4808346;29;20107;-66
2021/01/16 04:49:33;;;;;;;23.93;16.77;;;5.30;99.90;;;5.50;63.80;102623.75;4807088;29;20050;-66
2021/01/16 04:52:03;;;;;;;22.43;17.63;;;5.30;99.90;;;5.40;64.20;102618.91;4808223;29;20069;-66
2021/01/16 04:54:33;;;;;;;24.33;17.47;;;5.30;99.90;;;5.26;64.65;102612.19;4808065;29;20439;-66
2021/01/16 04:57:01;;;;;;;23.35;18.17;;;5.10;99.90;;;5.30;64.49;102607.97;4808399;29;20537;-68
2021/01/16 04:59:28;;;;;;;22.53;17.13;;;5.10;99.90;;;5.43;64.61;102610.28;4808153;29;20051;-66
2021/01/16 05:01:58;;;;;;;26.73;18.13;;;5.20;99.90;;;5.35;64.20;102609.97;4808078;29;20401;-66
2021/01/16 05:04:31;;;;;;;23.33;17.95;;;5.10;99.90;;;5.40;64.38;102603.16;4808104;29;20062;-66
2021/01/16 05:07:02;;;;;;;30.73;20.20;;;5.10;99.90;;;5.44;63.93;102597.22;4791785;29;20102;-66
2021/01/16 05:09:30;;;;;;;24.17;18.47;;;5.20;99.90;;;5.40;64.34;102604.94;4808185;29;20055;-66
2021/01/16 05:12:19;;;;;;;32.63;19.63;;;5.20;99.90;;;5.45;63.98;102606.00;4807915;29;20051;-66
2021/01/16 05:15:04;;;;;;;28.40;19.43;;;5.20;99.90;;;5.39;64.10;102597.88;4807837;29;20460;-66
2021/01/16 05:17:40;;;;;;;26.37;18.40;;;5.20;99.90;;;5.39;64.23;102590.00;4808079;29;20058;-66
2021/01/16 05:20:09;;;;;;;26.50;19.57;;;5.20;99.90;;;5.44;63.97;102588.44;4807868;29;20075;-67
2021/01/16 05:22:36;;;;;;;26.40;18.60;;;5.20;99.90;;;5.43;63.87;102582.34;4807830;29;20145;-66
2021/01/16 05:25:07;;;;;;;28.20;19.17;;;5.20;99.90;;;5.50;63.48;102581.75;4806477;29;20123;-67
2021/01/16 05:27:37;;;;;;;24.60;19.03;;;5.30;99.90;;;5.43;63.50;102560.44;4807567;29;20051;-66
2021/01/16 05:30:07;;;;;;;;;;;5.30;99.90;;;5.58;63.37;102586.44;4806923;29;20112;-66
2021/01/16 05:32:36;;;;;;;26.43;18.17;;;5.40;99.90;;;5.53;63.57;102589.75;4807594;29;19959;-66
2021/01/16 05:35:20;;;;;;;28.25;19.95;;;5.30;99.90;;;5.38;63.35;102588.22;4807571;29;20119;-66
2021/01/16 05:37:50;;;;;;;24.93;18.53;;;5.30;99.90;;;5.41;63.11;102586.63;4807576;29;20051;-66
2021/01/16 05:40:18;;;;;;;27.00;18.93;;;5.20;99.90;;;5.37;63.25;102565.41;4807311;29;20051;-66
2021/01/16 05:42:47;;;;;;;24.57;18.80;;;5.20;99.90;;;5.44;62.94;102578.88;4807397;29;20051;-67
2021/01/16 05:45:17;;;;;;;27.70;19.77;;;5.20;99.90;;;5.37;62.67;102566.31;4807497;29;20062;-67
2021/01/16 05:47:47;;;;;;;27.63;19.20;;;5.20;99.90;;;5.40;62.43;102557.69;4806732;29;20051;-66
2021/01/16 05:50:15;;;;;;;23.67;18.88;;;5.20;99.90;;;5.26;62.87;102564.06;4807452;29;20058;-67
2021/01/16 05:52:43;;;;;;;24.17;18.23;;;5.10;99.90;;;5.22;62.83;102543.75;4807159;29;20534;-66
2021/01/16 05:55:13;;;;;;;24.70;18.83;;;5.10;99.90;;;5.22;62.96;102546.38;4807282;29;20475;-66
2021/01/16 05:57:45;;;;;;;25.52;19.70;;;5.00;99.90;;;5.17;62.35;102555.75;4807188;29;20119;-66
2021/01/16 06:00:23;;;;;;;24.43;18.93;;;5.00;99.90;;;5.08;62.39;102551.03;4807030;29;20082;-67
2021/01/16 06:02:52;;;;;;;26.47;19.80;;;4.90;99.90;;;5.10;62.33;102551.09;4807116;29;20406;-67
2021/01/16 06:05:24;;;;;;;28.27;19.70;;;4.90;99.90;;;5.06;62.50;102544.81;4806782;29;20065;-67
2021/01/16 06:07:54;;;;;;;28.87;20.40;;;4.90;99.90;;;5.12;62.25;102544.19;4807127;29;20112;-67
2021/01/16 06:10:22;;;;;;;24.17;19.27;;;4.90;99.90;;;4.87;62.31;102539.56;4805767;29;20686;-66
2021/01/16 06:12:52;;;;;;;29.40;21.77;;;4.70;99.90;;;4.93;62.47;102546.81;4806895;29;20051;-67
2021/01/16 06:15:21;;;;;;;39.27;25.43;;;4.70;99.90;;;4.99;62.09;102544.47;4806853;29;20050;-67
2021/01/16 06:17:51;;;;;;;45.00;27.17;;;4.80;99.90;;;5.00;62.14;102535.75;4806662;29;20502;-67
2021/01/16 06:20:20;;;;;;;36.38;24.05;;;4.80;99.90;;;4.96;61.82;102536.44;4806929;29;20055;-67
2021/01/16 06:22:50;;;;;;;26.90;20.03;;;4.80;99.90;;;4.91;61.70;102535.34;4806683;29;20059;-67
2021/01/16 06:25:23;;;;;;;27.80;21.20;;;4.70;99.90;;;4.84;61.58;102528.06;4806784;29;20109;-67
2021/01/16 06:27:51;;;;;;;27.43;19.10;;;4.70;99.90;;;4.76;61.91;102538.19;4806680;29;20055;-67
2021/01/16 06:30:21;;;;;;;26.20;19.63;;;4.60;99.90;;;4.76;62.06;102526.81;4806271;29;20055;-67
2021/01/16 06:32:53;;;;;;;26.88;20.35;;;4.60;99.90;;;4.76;62.22;102521.56;4806449;29;20386;-67
2021/01/16 06:35:29;;;;;;;29.43;20.37;;;4.60;99.90;;;4.12;61.87;102412.94;4806536;29;20195;-67
2021/01/16 06:37:56;;;;;;;28.83;20.93;;;4.50;99.90;;;4.51;62.15;102477.59;4806577;29;20046;-67
2021/01/16 06:40:30;;;;;;;28.13;20.33;;;4.50;99.90;;;4.71;62.03;102525.69;4806443;29;20082;-66
2021/01/16 06:42:59;;;;;;;30.90;21.50;;;4.50;99.90;;;4.65;62.03;102514.91;4806333;29;20055;-67
2021/01/16 06:45:28;;;;;;;28.60;21.47;;;4.50;99.90;;;4.76;62.12;102506.75;4806589;29;20428;-66
2021/01/16 06:47:58;;;;;;;28.43;20.60;;;4.60;99.90;;;4.83;62.04;102511.44;4805101;29;20055;-67
2021/01/16 06:50:26;;;;;;;29.42;21.17;;;4.60;99.90;;;4.83;62.11;102514.03;4806406;29;20047;-67
2021/01/16 06:52:54;;;;;;;31.57;21.47;;;4.60;99.90;;;4.77;62.32;102507.63;4806446;29;20562;-66
2021/01/16 06:55:22;;;;;;;28.43;20.83;;;4.60;99.90;;;4.75;62.42;102501.41;4805986;29;20145;-67
2021/01/16 06:57:49;;;;;;;30.40;21.83;;;4.60;99.90;;;4.64;61.86;102508.81;4806081;29;20058;-67
2021/01/16 07:00:18;;;;;;;29.20;20.90;;;4.50;99.90;;;4.72;62.16;102512.69;4805139;29;20058;-66
2021/01/16 07:02:48;;;;;;;29.97;22.00;;;4.50;99.90;;;4.65;62.59;102493.94;4806031;29;20083;-67
2021/01/16 07:05:22;;;;;;;32.75;21.27;;;4.50;99.90;;;4.67;62.05;102508.03;4806012;29;20440;-67
2021/01/16 07:07:52;;;;;;;31.13;21.70;;;4.50;99.90;;;4.59;62.32;102513.81;4804528;29;20065;-67
2021/01/16 07:10:23;;;;;;;29.30;21.53;;;4.40;99.90;;;4.61;62.38;102510.41;4806138;29;20047;-67
2021/01/16 07:12:53;;;;;;;30.25;21.13;;;4.40;99.90;;;4.54;62.87;102507.50;4806224;29;20046;-67
2021/01/16 07:15:21;;;;;;;34.17;21.07;;;4.40;99.90;;;4.66;62.64;102504.53;4805817;29;20078;-67
2021/01/16 07:17:50;;;;;;;31.97;22.03;;;4.40;99.90;;;4.57;62.85;102506.72;4805756;29;20103;-66
2021/01/16 07:20:17;;;;;;;27.73;20.07;;;4.40;99.90;;;4.51;62.75;102502.09;4805506;29;20433;-67
2021/01/16 07:22:51;;;;;;;32.47;21.30;;;4.40;99.90;;;4.58;62.31;102498.94;4805825;29;20463;-67
2021/01/16 07:25:20;;;;;;;32.27;22.27;;;4.40;99.90;;;4.19;62.14;102415.00;4805830;29;20047;-67
2021/01/16 07:27:49;;;;;;;29.27;21.63;;;4.40;99.90;;;4.49;62.34;102501.13;4805513;29;20598;-67
2021/01/16 07:30:18;;;;;;;31.30;22.10;;;4.30;99.90;;;4.50;61.92;102483.69;4805828;29;20049;-67
2021/01/16 07:32:47;;;;;;;30.60;21.63;;;4.40;99.90;;;4.51;61.79;102486.38;4805380;29;20050;-67
2021/01/16 07:35:17;;;;;;;28.70;21.43;;;4.30;99.90;;;4.48;62.52;102494.09;4805583;29;20133;-67
2021/01/16 07:37:47;;;;;;;31.98;21.35;;;4.30;99.90;;;4.17;62.35;102408.81;4789282;29;20475;-67
2021/01/16 07:40:27;;;;;;;32.47;22.65;;;4.40;99.90;;;4.59;62.60;102484.09;4805539;29;20071;-67
2021/01/16 07:42:56;;;;;;;32.72;22.42;;;4.40;99.90;;;4.59;62.30;102478.84;4804305;29;20065;-67
2021/01/16 07:45:27;;;;;;;30.60;22.30;;;4.40;99.90;;;4.59;62.66;102474.53;4805218;29;20137;-67
2021/01/16 07:47:56;;;;;;;33.38;21.75;;;4.40;99.90;;;4.55;62.55;102477.81;4805444;29;20070;-67
2021/01/16 07:50:26;;;;;;;34.65;23.05;;;4.40;99.90;;;4.65;62.09;102475.59;4805357;29;20069;-67
2021/01/16 07:52:57;;;;;;;29.03;21.50;;;4.40;99.90;;;4.61;61.70;102477.19;4805188;29;20086;-67
2021/01/16 07:55:45;;;;;;;34.53;23.00;;;4.40;99.90;;;4.74;62.07;102473.41;4805196;29;20132;-67
2021/01/16 07:58:29;;;;;;;34.17;22.83;;;4.50;99.90;;;4.20;61.66;102388.00;4805182;29;20476;-67
2021/01/16 08:01:00;;;;;;;30.63;21.47;;;4.40;99.90;;;4.60;62.02;102454.47;4805340;29;20431;-68
2021/01/16 08:04:06;;;;;;;35.67;23.43;;;4.40;99.90;;;4.63;61.49;102458.94;4805205;29;20062;-67
2021/01/16 08:07:01;;;;;;;33.43;23.77;;;4.40;99.90;;;4.66;62.05;102445.97;4805015;29;20517;-67
2021/01/16 08:09:49;;;;;;;33.73;23.47;;;4.50;99.90;;;4.79;62.27;102441.34;4804984;29;20413;-69
2021/01/16 08:12:19;;;;;;;33.90;23.13;;;4.60;99.90;;;4.83;61.96;102442.38;4804940;29;20054;-69
2021/01/16 08:14:47;;;;;;;33.53;23.47;;;4.60;99.90;;;4.88;62.23;102435.63;4804882;29;20469;-68
2021/01/16 08:17:21;;;;;;;33.87;23.57;;;4.70;99.90;;;4.88;62.02;102438.25;4804744;29;20051;-70
2021/01/16 08:20:28;;;;;;;33.40;23.00;;;4.70;99.90;;;4.81;62.02;102429.19;4803672;29;20047;-68
2021/01/16 08:22:57;;;;;;;33.07;23.30;;;4.70;99.90;;;4.72;61.88;102430.53;4731450;30;20066;-70
2021/01/16 08:25:28;;;;;;;36.97;24.97;;;4.60;99.90;;;4.76;61.70;102429.84;4731577;30;20512;-70
2021/01/16 08:27:57;;;;;;;34.72;24.45;;;4.60;99.90;;;4.54;61.64;102418.41;4770104;29;20131;-71
2021/01/16 08:30:27;;;;;;;38.27;24.03;;;4.40;99.90;;;4.55;61.78;102427.13;4804796;29;20056;-68
2021/01/16 08:33:02;;;;;;;36.35;24.38;;;4.40;99.90;;;3.92;61.47;102315.16;4804873;29;20490;-71
2021/01/16 08:35:32;;;;;;;38.80;24.93;;;4.40;99.90;;;4.39;61.71;102417.69;4804671;29;20047;-72
2021/01/16 08:38:26;;;;;;;35.08;23.00;;;4.30;99.90;;;4.41;61.40;102421.28;4804894;29;20047;-70
2021/01/16 08:41:05;;;;;;;31.87;23.07;;;4.30;99.90;;;4.42;61.57;102411.69;4804786;29;20047;-68
2021/01/16 08:43:39;;;;;;;35.13;23.13;;;4.30;99.90;;;4.39;61.63;102403.72;4804697;29;20046;-68
2021/01/16 08:46:13;;;;;;;34.27;23.43;;;4.20;99.90;;;4.54;62.12;102402.69;4804729;29;20092;-68
2021/01/16 08:48:56;;;;;;;32.47;21.70;;;4.40;99.90;;;4.48;62.80;102385.78;4804890;29;20059;-69
2021/01/16 08:51:36;;;;;;;33.70;23.33;;;4.50;99.90;;;4.55;62.74;102398.31;4804713;29;20053;-70
2021/01/16 08:54:24;;;;;;;32.67;23.97;;;4.50;99.90;;;4.61;62.98;102387.25;4804497;29;20100;-70
2021/01/16 08:56:55;;;;;;;34.47;24.57;;;4.50;99.90;;;4.61;63.82;102382.88;4799939;29;20161;-68
2021/01/16 08:59:28;;;;;;;36.63;25.70;;;4.50;99.90;;;4.65;63.36;102386.50;4803915;29;20058;-67
2021/01/16 09:02:06;;;;;;;38.40;25.93;;;4.50;99.90;;;4.40;64.39;102366.22;4804585;29;20391;-69
2021/01/16 09:04:35;;;;;;;37.90;27.30;;;4.50;99.90;;;4.49;64.34;102384.97;4804500;29;20042;-70
2021/01/16 09:07:14;;;;;;;39.40;25.50;;;4.50;99.90;;;4.52;64.81;102378.13;4804697;29;20119;-70
2021/01/16 09:09:52;;;;;;;40.10;27.90;;;4.40;99.90;;;4.54;64.76;102389.59;4804546;29;20096;-71
2021/01/16 09:12:30;;;;;;;41.00;28.50;;;4.50;99.90;;;4.57;63.96;102389.69;4804572;29;20043;-70
2021/01/16 09:15:16;;;;;;;43.77;28.73;;;4.40;99.90;;;4.67;64.34;102380.53;4804162;29;20051;-67
2021/01/16 09:18:07;;;;;;;44.47;29.33;;;4.60;99.90;;;4.40;63.84;102359.25;4804165;29;20054;-67
2021/01/16 09:20:38;;;;;;;43.55;28.45;;;4.50;99.90;;;4.59;65.05;102382.81;4804410;29;20062;-67
2021/01/16 09:23:32;;;;;;;41.97;28.60;;;4.50;99.90;;;4.59;64.51;102381.91;4806270;29;20050;-65
2021/01/16 09:26:09;;;;;;;38.20;28.20;;;4.50;99.90;;;4.65;64.48;102383.88;4792004;29;20446;-68
2021/01/16 09:28:51;;;;;;;41.80;28.77;;;4.60;99.90;;;4.63;64.34;102354.13;4807613;29;20460;-67
2021/01/16 09:31:27;;;;;;;42.50;29.67;;;4.60;99.90;;;4.54;64.67;102331.03;4807656;29;20066;-68
2021/01/16 09:34:04;;;;;;;37.60;26.10;;;4.70;99.90;;;4.66;64.15;102368.25;4807391;29;20065;-68
2021/01/16 09:36:42;;;;;;;35.90;24.97;;;4.60;99.90;;;4.53;64.23;102369.44;4806457;29;20574;-67
2021/01/16 09:39:25;;;;;;;37.63;25.63;;;4.50;99.90;;;4.51;63.81;102371.09;4807594;29;20138;-67
2021/01/16 09:41:56;;;;;;;36.23;25.57;;;4.40;99.90;;;4.42;63.57;102367.16;4806155;29;20058;-67
2021/01/16 09:45:02;;;;;;;;;;;4.30;99.90;;;4.29;63.80;102376.22;4807817;29;20524;-68
2021/01/16 09:47:55;;;;;;;33.20;22.57;;;4.30;99.90;;;4.34;63.58;102369.47;4807255;29;19925;-68
2021/01/16 09:50:28;;;;;;;32.77;23.00;;;4.20;99.90;;;4.23;63.17;102381.19;4790447;29;20063;-68
2021/01/16 09:53:03;;;;;;;30.00;21.93;;;4.20;99.90;;;4.28;63.18;102370.91;4807477;29;20053;-67
2021/01/16 09:55:34;;;;;;;33.67;21.90;;;4.20;99.90;;;4.11;62.93;102362.28;4807447;29;20077;-67
2021/01/16 09:58:03;;;;;;;27.37;20.10;;;4.10;99.90;;;4.19;63.11;102371.41;4807170;29;20418;-67
2021/01/16 10:00:34;;;;;;;29.77;19.73;;;4.00;99.90;;;4.13;62.95;102368.50;4807472;29;20087;-67
2021/01/16 10:03:09;;;;;;;27.67;20.00;;;4.00;99.90;;;4.09;62.92;102365.66;4806827;29;20059;-67
2021/01/16 10:05:38;;;;;;;26.73;19.57;;;3.90;99.90;;;4.14;63.46;102364.16;4807293;29;20055;-68
2021/01/16 10:08:08;;;;;;;29.00;20.10;;;4.00;99.90;;;4.15;63.08;102358.09;4807010;29;20058;-67
2021/01/16 10:10:44;;;;;;;26.90;18.77;;;4.00;99.90;;;4.11;62.89;102367.53;4805580;29;20055;-67
2021/01/16 10:13:14;;;;;;;26.90;18.90;;;4.00;99.90;;;4.05;62.13;102348.91;4806748;29;20127;-67
2021/01/16 10:15:50;;;;;;;24.67;18.20;;;4.00;99.90;;;4.01;62.24;102346.97;4806636;29;20047;-68
2021/01/16 10:18:21;;;;;;;25.33;17.90;;;4.00;99.90;;;4.05;62.60;102364.63;4807235;29;20050;-67
2021/01/16 10:21:04;;;;;;;24.70;18.17;;;4.00;99.90;;;3.99;62.43;102346.03;4806723;29;20108;-68
2021/01/16 10:23:35;;;;;;;25.40;17.57;;;3.90;99.90;;;4.04;62.49;102339.28;4806724;29;20138;-67
2021/01/16 10:26:09;;;;;;;25.65;16.77;;;3.90;99.90;;;4.04;61.73;102333.16;4806647;29;20062;-67
2021/01/16 10:28:40;;;;;;;25.67;18.07;;;3.90;99.90;;;3.98;61.51;102327.63;4806804;29;20051;-67
2021/01/16 10:31:10;;;;;;;22.15;16.52;;;3.90;99.90;;;4.03;62.11;102324.38;4806844;29;20417;-66
2021/01/16 10:33:42;;;;;;;25.07;16.50;;;3.90;99.90;;;4.02;61.56;102324.34;4806323;29;20065;-68